createdAt,value
2019-01-23T00:01:29.706Z,86.00
2019-01-23T00:03:55.752Z,85.90
2019-01-23T00:06:21.798Z,85.90
2019-01-23T00:08:47.822Z,85.60
2019-01-23T00:11:13.851Z,85.40
2019-01-23T00:13:39.903Z,84.40
2019-01-23T00:16:05.982Z,84.40
2019-01-23T00:18:32.009Z,84.70
2019-01-23T00:20:58.003Z,84.70
2019-01-23T00:23:24.051Z,85.10
2019-01-23T00:25:50.109Z,84.80
2019-01-23T00:28:16.146Z,84.50
2019-01-23T00:30:42.159Z,84.40
2019-01-23T00:33:08.194Z,84.20
2019-01-23T00:35:34.203Z,84.30
2019-01-23T00:38:00.243Z,84.50
2019-01-23T00:40:26.268Z,83.40
2019-01-23T00:42:52.303Z,84.20
2019-01-23T00:45:18.323Z,84.50
2019-01-23T00:47:44.367Z,84.10
2019-01-23T00:50:12.086Z,84.30
2019-01-23T00:52:38.212Z,84.10
2019-01-23T00:55:10.006Z,84.40
2019-01-23T00:57:36.020Z,84.10
2019-01-23T01:00:05.468Z,83.80
2019-01-23T01:02:31.515Z,83.80
2019-01-23T01:05:17.422Z,83.90
2019-01-23T01:07:43.472Z,84.10
2019-01-23T01:10:15.166Z,84.40
2019-01-23T01:12:41.214Z,84.00
2019-01-23T01:15:13.094Z,85.00
2019-01-23T01:17:35.168Z,84.60
2019-01-23T01:20:01.808Z,84.60
2019-01-23T01:22:27.855Z,83.50
2019-01-23T01:24:53.871Z,83.60
2019-01-23T01:27:19.907Z,83.80
2019-01-23T01:29:45.940Z,83.80
2019-01-23T01:32:11.950Z,83.60
2019-01-23T01:34:37.995Z,83.60
2019-01-23T01:37:04.027Z,83.90
2019-01-23T01:39:30.063Z,83.70
2019-01-23T01:41:56.095Z,84.40
2019-01-23T01:44:22.111Z,83.40
2019-01-23T01:46:48.162Z,83.40
2019-01-23T01:49:14.187Z,83.60
2019-01-23T01:51:40.219Z,83.30
2019-01-23T01:54:06.460Z,84.80
2019-01-23T01:56:32.547Z,83.30
2019-01-23T01:59:02.708Z,83.50
2019-01-23T02:01:26.685Z,83.60
2019-01-23T02:03:52.750Z,83.30
2019-01-23T02:06:18.759Z,82.70
2019-01-23T02:08:44.793Z,82.80
2019-01-23T02:11:10.939Z,82.80
2019-01-23T02:13:36.950Z,82.80
2019-01-23T02:16:02.975Z,82.50
2019-01-23T02:18:28.989Z,83.20
2019-01-23T02:20:55.225Z,82.50
2019-01-23T02:23:21.238Z,82.50
2019-01-23T02:25:47.289Z,82.70
2019-01-23T02:28:13.290Z,82.50
2019-01-23T02:30:39.334Z,82.40
2019-01-23T02:33:05.362Z,82.10
2019-01-23T02:35:31.397Z,82.70
2019-01-23T02:37:57.444Z,82.30
2019-01-23T02:40:23.472Z,83.10
2019-01-23T02:42:49.514Z,82.40
2019-01-23T02:45:15.626Z,83.20
2019-01-23T02:47:41.662Z,82.80
2019-01-23T02:50:16.783Z,82.50
2019-01-23T02:52:42.809Z,82.80
2019-01-23T02:55:09.624Z,82.80
2019-01-23T02:57:35.739Z,82.90
2019-01-23T03:00:05.288Z,82.90
2019-01-23T03:02:31.301Z,83.00
2019-01-23T03:04:57.344Z,83.00
2019-01-23T03:07:23.377Z,83.40
2019-01-23T03:09:49.422Z,83.50
2019-01-23T03:12:15.444Z,83.70
2019-01-23T03:14:41.473Z,83.70
2019-01-23T03:17:07.520Z,83.80
2019-01-23T03:19:33.859Z,84.20
2019-01-23T03:21:59.904Z,84.10
2019-01-23T03:24:26.028Z,84.10
2019-01-23T03:26:52.088Z,84.60
2019-01-23T03:29:24.491Z,85.10
2019-01-23T03:31:46.049Z,85.10
2019-01-23T03:34:14.186Z,84.60
2019-01-23T03:36:40.191Z,84.50
2019-01-23T03:39:06.235Z,84.70
2019-01-23T03:41:32.248Z,84.70
2019-01-23T03:43:58.269Z,84.60
2019-01-23T03:46:24.313Z,85.10
2019-01-23T03:48:50.351Z,85.30
2019-01-23T03:51:16.388Z,85.40
2019-01-23T03:53:42.472Z,85.50
2019-01-23T03:56:08.487Z,86.60
2019-01-23T03:58:34.503Z,86.80
2019-01-23T04:01:00.544Z,87.00
2019-01-23T04:03:26.560Z,86.50
2019-01-23T04:05:52.615Z,87.40
2019-01-23T04:08:18.708Z,87.90
2019-01-23T04:10:44.821Z,88.10
2019-01-23T04:13:10.841Z,88.90
2019-01-23T04:15:36.884Z,88.60
2019-01-23T04:18:22.777Z,89.00
2019-01-23T04:20:49.115Z,88.50
2019-01-23T04:23:15.124Z,89.50
2019-01-23T04:25:43.047Z,88.60
2019-01-23T04:28:09.095Z,89.30
2019-01-23T04:30:35.120Z,89.40
2019-01-23T04:33:01.177Z,89.70
2019-01-23T04:35:27.196Z,89.30
2019-01-23T04:37:53.216Z,88.40
2019-01-23T04:40:19.248Z,88.30
2019-01-23T04:42:45.274Z,88.60
2019-01-23T04:45:13.120Z,88.70
2019-01-23T04:47:39.134Z,88.90
2019-01-23T04:50:07.783Z,89.30
2019-01-23T04:52:35.718Z,89.80
2019-01-23T04:55:01.731Z,90.20
2019-01-23T04:57:27.767Z,90.20
2019-01-23T04:59:53.814Z,90.10
2019-01-23T05:02:19.831Z,90.60
2019-01-23T05:04:45.884Z,90.70
2019-01-23T05:07:11.935Z,90.30
2019-01-23T05:09:37.979Z,90.10
2019-01-23T05:12:04.036Z,89.90
2019-01-23T05:14:30.054Z,89.20
2019-01-23T05:16:56.077Z,89.80
2019-01-23T05:19:22.085Z,88.30
2019-01-23T05:21:48.212Z,89.30
2019-01-23T05:24:14.231Z,88.20
2019-01-23T05:26:40.280Z,88.80
2019-01-23T05:29:06.316Z,88.30
2019-01-23T05:31:32.329Z,88.70
2019-01-23T05:33:58.347Z,89.10
2019-01-23T05:36:24.356Z,88.80
2019-01-23T05:38:50.384Z,89.00
2019-01-23T05:41:16.400Z,88.90
2019-01-23T05:43:42.427Z,88.80
2019-01-23T05:46:08.501Z,89.30
2019-01-23T05:48:34.551Z,89.50
2019-01-23T05:51:00.632Z,89.10
2019-01-23T05:53:26.664Z,89.00
2019-01-23T05:55:52.680Z,88.50
2019-01-23T05:58:18.697Z,89.10
2019-01-23T06:00:44.759Z,88.80
2019-01-23T06:03:10.871Z,89.00
2019-01-23T06:05:36.999Z,89.10
2019-01-23T06:08:03.019Z,89.20
2019-01-23T06:10:29.060Z,89.00
2019-01-23T06:12:56.020Z,89.80
2019-01-23T06:15:22.067Z,89.40
2019-01-23T06:17:48.099Z,89.10
2019-01-23T06:20:16.407Z,90.10
2019-01-23T06:22:42.448Z,90.10
2019-01-23T06:25:08.469Z,89.60
2019-01-23T06:27:34.514Z,90.20
2019-01-23T06:30:00.540Z,90.00
2019-01-23T06:32:26.620Z,90.00
2019-01-23T06:34:52.711Z,90.10
2019-01-23T06:37:19.890Z,90.00
2019-01-23T06:39:45.930Z,90.10
2019-01-23T06:42:12.063Z,90.50
2019-01-23T06:44:38.150Z,90.40
2019-01-23T06:47:04.199Z,91.10
2019-01-23T06:49:30.247Z,90.60
2019-01-23T06:51:56.276Z,90.60
2019-01-23T06:54:22.326Z,90.30
2019-01-23T06:56:48.375Z,90.40
2019-01-23T06:59:14.394Z,90.30
2019-01-23T07:01:40.428Z,90.10
2019-01-23T07:04:06.451Z,90.20
2019-01-23T07:06:32.503Z,90.20
2019-01-23T07:08:58.567Z,90.00
2019-01-23T07:11:24.588Z,90.00
2019-01-23T07:13:50.623Z,89.30
2019-01-23T07:16:16.640Z,89.80
2019-01-23T07:18:42.792Z,89.80
2019-01-23T07:21:08.803Z,89.70
2019-01-23T07:23:34.840Z,89.00
2019-01-23T07:26:00.886Z,88.70
2019-01-23T07:28:26.887Z,88.40
2019-01-23T07:30:52.915Z,88.50
2019-01-23T07:33:18.980Z,88.60
2019-01-23T07:35:45.025Z,88.30
2019-01-23T07:38:11.040Z,88.20
2019-01-23T07:40:37.095Z,88.50
2019-01-23T07:43:03.128Z,87.70
2019-01-23T07:45:29.151Z,87.20
2019-01-23T07:47:55.204Z,87.20
2019-01-23T07:50:21.227Z,86.70
2019-01-23T07:52:47.235Z,87.10
2019-01-23T07:55:16.167Z,86.40
2019-01-23T07:57:42.203Z,86.90
2019-01-23T08:00:13.787Z,86.80
2019-01-23T08:02:39.824Z,86.20
2019-01-23T08:05:08.668Z,86.20
2019-01-23T08:07:34.735Z,85.80
2019-01-23T08:10:20.877Z,85.70
2019-01-23T08:12:46.888Z,85.80
2019-01-23T08:15:21.751Z,85.50
2019-01-23T08:17:47.847Z,85.80
2019-01-23T08:20:33.936Z,85.80
2019-01-23T08:22:59.968Z,84.80
2019-01-23T08:25:26.019Z,85.70
2019-01-23T08:27:52.032Z,84.20
2019-01-23T08:30:19.887Z,84.10
2019-01-23T08:32:45.915Z,83.80
2019-01-23T08:35:12.037Z,83.50
2019-01-23T08:37:40.343Z,83.10
2019-01-23T08:40:09.655Z,83.20
2019-01-23T08:42:35.699Z,83.00
2019-01-23T08:45:01.731Z,82.30
2019-01-23T08:47:27.845Z,82.90
2019-01-23T08:49:53.956Z,83.50
2019-01-23T08:52:19.995Z,82.30
2019-01-23T08:54:46.003Z,88.00
2019-01-23T08:57:12.039Z,85.20
2019-01-23T08:59:38.055Z,83.80
2019-01-23T09:02:04.100Z,83.20
2019-01-23T09:04:30.122Z,82.20
2019-01-23T09:06:56.235Z,82.90
2019-01-23T09:09:22.260Z,83.10
2019-01-23T09:11:48.284Z,83.60
2019-01-23T09:14:14.328Z,84.40
2019-01-23T09:16:40.372Z,84.30
2019-01-23T09:19:06.395Z,84.80
2019-01-23T09:21:32.408Z,84.80
2019-01-23T09:23:58.447Z,83.80
2019-01-23T09:26:24.448Z,83.90
2019-01-23T09:28:50.492Z,83.30
2019-01-23T09:31:23.151Z,83.40
2019-01-23T09:34:04.431Z,82.50
2019-01-23T09:36:55.838Z,81.40
2019-01-23T09:39:31.764Z,81.10
2019-01-23T09:42:01.604Z,79.20
2019-01-23T09:44:49.403Z,80.20
2019-01-23T09:47:25.451Z,79.70
2019-01-23T09:50:21.264Z,79.00
2019-01-23T09:52:51.179Z,79.30
2019-01-23T09:55:17.231Z,78.40
2019-01-23T09:58:05.050Z,78.40
2019-01-23T10:00:31.817Z,78.50
2019-01-23T10:02:58.209Z,78.90
2019-01-23T10:05:24.325Z,78.90
2019-01-23T10:07:50.331Z,79.50
2019-01-23T10:10:19.286Z,80.00
2019-01-23T10:12:45.332Z,78.30
2019-01-23T10:15:15.195Z,78.70
2019-01-23T10:17:41.269Z,78.80
2019-01-23T10:20:07.292Z,78.80
2019-01-23T10:22:33.339Z,79.20
2019-01-23T10:24:59.368Z,78.40
2019-01-23T10:27:25.396Z,77.70
2019-01-23T10:29:51.437Z,78.10
2019-01-23T10:32:17.476Z,78.50
2019-01-23T10:34:43.515Z,78.70
2019-01-23T10:37:09.536Z,77.70
2019-01-23T10:39:35.692Z,76.90
2019-01-23T10:42:01.735Z,75.10
2019-01-23T10:44:27.767Z,74.80
2019-01-23T10:46:53.817Z,75.00
2019-01-23T10:49:19.834Z,74.60
2019-01-23T10:51:45.887Z,73.20
2019-01-23T10:54:11.940Z,77.90
2019-01-23T10:56:37.960Z,75.30
2019-01-23T10:59:04.007Z,75.30
2019-01-23T11:01:30.033Z,73.60
2019-01-23T11:03:56.084Z,73.00
2019-01-23T11:06:22.207Z,72.70
2019-01-23T11:08:48.239Z,71.90
2019-01-23T11:11:14.265Z,70.90
2019-01-23T11:13:40.312Z,71.60
2019-01-23T11:16:06.348Z,69.50
2019-01-23T11:18:32.389Z,69.80
2019-01-23T11:20:58.429Z,69.80
2019-01-23T11:23:24.459Z,70.50
2019-01-23T11:25:50.531Z,69.10
2019-01-23T11:28:16.539Z,69.60
2019-01-23T11:30:42.563Z,69.70
2019-01-23T11:33:08.651Z,71.10
2019-01-23T11:35:34.691Z,70.50
2019-01-23T11:38:00.708Z,69.00
2019-01-23T11:40:28.858Z,69.70
2019-01-23T11:42:54.875Z,69.70
2019-01-23T11:45:20.920Z,69.10
2019-01-23T11:47:46.936Z,69.10
2019-01-23T11:50:21.147Z,68.20
2019-01-23T11:52:42.535Z,69.20
2019-01-23T11:55:09.056Z,68.30
2019-01-23T11:57:35.092Z,68.40
2019-01-23T12:00:01.150Z,68.60
2019-01-23T12:02:30.998Z,69.10
2019-01-23T12:04:55.092Z,68.70
2019-01-23T12:07:21.163Z,69.70
2019-01-23T12:09:47.196Z,70.20
2019-01-23T12:12:13.232Z,67.90
2019-01-23T12:14:39.309Z,69.10
2019-01-23T12:17:05.410Z,69.60
2019-01-23T12:19:31.429Z,69.20
2019-01-23T12:21:57.501Z,69.40
2019-01-23T12:24:24.737Z,68.30
2019-01-23T12:26:50.963Z,69.20
2019-01-23T12:29:16.995Z,70.30
2019-01-23T12:31:43.159Z,71.10
2019-01-23T12:34:09.267Z,73.00
2019-01-23T12:36:35.299Z,73.10
2019-01-23T12:39:01.443Z,71.20
2019-01-23T12:41:27.492Z,70.40
2019-01-23T12:43:53.527Z,69.40
2019-01-23T12:46:19.551Z,69.20
2019-01-23T12:48:46.595Z,68.30
2019-01-23T12:51:12.671Z,68.60
2019-01-23T12:53:38.688Z,68.90
2019-01-23T12:56:04.744Z,68.80
2019-01-23T12:58:30.771Z,68.70
2019-01-23T13:00:56.788Z,67.80
2019-01-23T13:03:22.815Z,67.60
2019-01-23T13:05:48.861Z,67.50
2019-01-23T13:08:14.888Z,68.00
2019-01-23T13:11:02.704Z,68.90
2019-01-23T13:13:28.772Z,67.70
2019-01-23T13:15:54.836Z,67.50
2019-01-23T13:18:20.852Z,67.40
2019-01-23T13:20:46.899Z,67.50
2019-01-23T13:23:19.438Z,68.60
2019-01-23T13:25:40.912Z,69.80
2019-01-23T13:28:06.944Z,67.70
2019-01-23T13:30:32.994Z,67.60
2019-01-23T13:32:59.116Z,66.90
2019-01-23T13:35:27.859Z,67.80
2019-01-23T13:37:53.896Z,68.00
2019-01-23T13:40:22.384Z,67.90
2019-01-23T13:42:48.404Z,68.60
2019-01-23T13:45:14.436Z,67.80
2019-01-23T13:47:40.455Z,66.70
2019-01-23T13:50:09.381Z,67.30
2019-01-23T13:52:35.468Z,67.50
2019-01-23T13:55:01.780Z,67.40
2019-01-23T13:57:27.811Z,66.50
2019-01-23T13:59:53.827Z,67.50
2019-01-23T14:02:19.860Z,67.40
2019-01-23T14:04:45.896Z,67.70
2019-01-23T14:07:11.966Z,67.90
2019-01-23T14:09:38.076Z,69.10
2019-01-23T14:12:04.104Z,68.20
2019-01-23T14:14:30.152Z,67.90
2019-01-23T14:16:56.183Z,66.80
2019-01-23T14:19:22.384Z,67.30
2019-01-23T14:21:48.404Z,67.20
2019-01-23T14:24:14.423Z,68.00
2019-01-23T14:26:40.485Z,68.50
2019-01-23T14:29:06.527Z,67.00
2019-01-23T14:31:32.551Z,67.50
2019-01-23T14:33:58.724Z,68.60
2019-01-23T14:36:24.779Z,66.90
2019-01-23T14:38:50.808Z,66.70
2019-01-23T14:41:16.848Z,67.00
2019-01-23T14:43:42.858Z,66.60
2019-01-23T14:46:08.899Z,67.30
2019-01-23T14:48:34.920Z,67.10
2019-01-23T14:51:00.970Z,67.10
2019-01-23T14:53:27.011Z,66.20
2019-01-23T14:55:53.043Z,65.00
2019-01-23T14:58:19.059Z,65.80
2019-01-23T15:00:45.140Z,65.30
2019-01-23T15:03:11.179Z,67.00
2019-01-23T15:05:37.215Z,67.30
2019-01-23T15:08:03.211Z,66.10
2019-01-23T15:10:30.702Z,66.60
2019-01-23T15:12:56.880Z,67.60
2019-01-23T15:15:22.966Z,67.10
2019-01-23T15:17:49.144Z,67.30
2019-01-23T15:20:24.603Z,67.80
2019-01-23T15:22:50.662Z,67.80
2019-01-23T15:25:16.673Z,67.10
2019-01-23T15:27:42.699Z,67.70
2019-01-23T15:30:12.132Z,68.60
2019-01-23T15:32:38.204Z,70.70
2019-01-23T15:35:06.415Z,68.90
2019-01-23T15:37:32.425Z,69.50
2019-01-23T15:39:58.459Z,67.70
2019-01-23T15:42:24.492Z,67.80
2019-01-23T15:44:50.500Z,69.10
2019-01-23T15:47:16.560Z,68.80
2019-01-23T15:49:42.576Z,69.10
2019-01-23T15:52:08.624Z,68.60
2019-01-23T15:54:34.683Z,69.50
2019-01-23T15:57:00.707Z,67.70
2019-01-23T15:59:26.748Z,68.70
2019-01-23T16:01:52.755Z,67.80
2019-01-23T16:04:18.793Z,68.70
2019-01-23T16:06:44.821Z,69.80
2019-01-23T16:09:11.001Z,69.80
2019-01-23T16:11:37.456Z,69.60
2019-01-23T16:14:03.486Z,68.60
2019-01-23T16:16:29.528Z,69.00
2019-01-23T16:18:55.563Z,70.90
2019-01-23T16:21:21.577Z,70.50
2019-01-23T16:23:47.608Z,70.10
2019-01-23T16:26:13.643Z,69.80
2019-01-23T16:28:39.683Z,70.70
2019-01-23T16:31:05.727Z,70.80
2019-01-23T16:33:31.875Z,69.40
2019-01-23T16:35:57.899Z,70.10
2019-01-23T16:38:23.937Z,69.70
2019-01-23T16:40:49.952Z,70.50
2019-01-23T16:43:16.267Z,70.00
2019-01-23T16:45:42.404Z,69.70
2019-01-23T16:48:08.440Z,70.60
2019-01-23T16:50:34.455Z,69.00
2019-01-23T16:53:00.507Z,69.30
2019-01-23T16:55:26.566Z,68.70
2019-01-23T16:57:52.710Z,68.20
2019-01-23T17:00:20.834Z,68.50
2019-01-23T17:02:46.879Z,68.30
2019-01-23T17:05:16.028Z,68.70
2019-01-23T17:07:42.039Z,69.00
2019-01-23T17:10:11.512Z,69.30
2019-01-23T17:12:37.507Z,70.20
2019-01-23T17:15:04.734Z,71.00
2019-01-23T17:17:30.757Z,71.30
2019-01-23T17:19:59.148Z,71.50
2019-01-23T17:22:24.742Z,72.40
2019-01-23T17:24:50.780Z,70.70
2019-01-23T17:27:16.822Z,72.20
2019-01-23T17:29:42.847Z,70.70
2019-01-23T17:32:08.859Z,70.20
2019-01-23T17:34:34.900Z,70.00
2019-01-23T17:37:01.004Z,69.80
2019-01-23T17:39:27.073Z,70.90
2019-01-23T17:41:53.074Z,70.70
2019-01-23T17:44:19.103Z,71.50
2019-01-23T17:46:45.535Z,71.50
2019-01-23T17:49:11.597Z,71.70
2019-01-23T17:51:37.960Z,71.50
2019-01-23T17:54:04.600Z,71.80
2019-01-23T17:56:30.879Z,71.10
2019-01-23T17:58:57.626Z,71.50
2019-01-23T18:01:23.728Z,71.60
2019-01-23T18:03:49.877Z,71.00
2019-01-23T18:06:15.954Z,71.20
2019-01-23T18:08:41.981Z,70.00
2019-01-23T18:11:07.995Z,70.90
2019-01-23T18:13:34.304Z,70.70
2019-01-23T18:16:01.994Z,72.50
2019-01-23T18:18:28.096Z,71.30
2019-01-23T18:20:54.140Z,72.60
2019-01-23T18:23:20.190Z,72.40
2019-01-23T18:25:46.187Z,71.60
2019-01-23T18:28:12.215Z,71.10
2019-01-23T18:31:17.035Z,71.90
2019-01-23T18:33:46.959Z,72.10
2019-01-23T18:36:19.747Z,71.40
2019-01-23T18:38:55.400Z,71.20
2019-01-23T18:41:49.180Z,71.50
2019-01-23T18:44:43.445Z,71.10
2019-01-23T18:47:16.399Z,72.30
2019-01-23T18:50:01.390Z,72.10
2019-01-23T18:52:27.424Z,72.70
2019-01-23T18:54:53.420Z,73.80
2019-01-23T18:57:23.264Z,73.80
2019-01-23T18:59:49.304Z,72.90
2019-01-23T19:02:15.327Z,71.60
2019-01-23T19:04:41.372Z,71.50
2019-01-23T19:07:07.502Z,70.70
2019-01-23T19:09:33.512Z,71.10
2019-01-23T19:11:59.549Z,70.20
2019-01-23T19:14:25.635Z,70.00
2019-01-23T19:16:59.879Z,70.70
2019-01-23T19:19:25.896Z,70.60
2019-01-23T19:21:55.218Z,71.00
2019-01-23T19:24:19.981Z,71.00
2019-01-23T19:26:46.001Z,71.30
2019-01-23T19:29:12.044Z,71.70
2019-01-23T19:31:38.183Z,71.50
2019-01-23T19:34:04.191Z,70.80
2019-01-23T19:36:30.236Z,71.30
2019-01-23T19:38:56.289Z,72.60
2019-01-23T19:41:22.335Z,71.50
2019-01-23T19:43:48.359Z,72.20
2019-01-23T19:46:14.396Z,70.90
2019-01-23T19:48:40.493Z,71.20
2019-01-23T19:51:06.583Z,70.70
2019-01-23T19:53:32.647Z,71.50
2019-01-23T19:55:58.718Z,71.40
2019-01-23T19:58:24.735Z,72.10
2019-01-23T20:00:50.777Z,72.50
2019-01-23T20:03:20.399Z,72.50
2019-01-23T20:05:44.747Z,71.90
2019-01-23T20:08:10.774Z,71.30
2019-01-23T20:10:36.992Z,71.50
2019-01-23T20:13:03.128Z,72.10
2019-01-23T20:15:29.203Z,71.90
2019-01-23T20:17:55.534Z,73.20
2019-01-23T20:20:21.544Z,72.60
2019-01-23T20:22:47.588Z,72.00
2019-01-23T20:25:17.408Z,72.10
2019-01-23T20:27:43.472Z,71.80
2019-01-23T20:30:27.419Z,71.90
2019-01-23T20:32:53.455Z,71.80
2019-01-23T20:35:19.472Z,71.40
2019-01-23T20:37:45.513Z,71.40
2019-01-23T20:40:12.332Z,71.90
2019-01-23T20:42:38.480Z,71.90
2019-01-23T20:45:08.201Z,70.60
2019-01-23T20:47:34.219Z,71.40
2019-01-23T20:50:00.244Z,69.80
2019-01-23T20:52:26.380Z,69.60
2019-01-23T20:54:52.457Z,70.20
2019-01-23T20:57:18.487Z,70.90
2019-01-23T20:59:44.525Z,71.30
2019-01-23T21:02:11.263Z,71.80
2019-01-23T21:04:37.272Z,71.30
2019-01-23T21:07:03.316Z,71.60
2019-01-23T21:09:29.363Z,71.10
2019-01-23T21:11:55.370Z,71.30
2019-01-23T21:14:21.416Z,71.70
2019-01-23T21:16:47.431Z,70.90
2019-01-23T21:19:13.532Z,70.50
2019-01-23T21:21:39.556Z,71.30
2019-01-23T21:24:05.592Z,71.20
2019-01-23T21:26:31.643Z,70.70
2019-01-23T21:28:57.682Z,71.00
2019-01-23T21:31:23.788Z,70.30
2019-01-23T21:33:49.843Z,70.30
2019-01-23T21:36:15.977Z,69.70
2019-01-23T21:38:42.011Z,70.00
2019-01-23T21:41:08.288Z,69.60
2019-01-23T21:43:34.311Z,69.70
2019-01-23T21:46:00.333Z,70.30
2019-01-23T21:48:26.357Z,71.80
2019-01-23T21:50:52.368Z,71.50
2019-01-23T21:53:18.408Z,71.00
2019-01-23T21:55:44.463Z,71.20
2019-01-23T21:58:10.485Z,71.40
2019-01-23T22:00:39.471Z,71.80
2019-01-23T22:03:07.348Z,72.50
2019-01-23T22:05:33.428Z,71.80
2019-01-23T22:07:59.449Z,72.70
2019-01-23T22:10:25.479Z,71.90
2019-01-23T22:12:51.496Z,72.40
2019-01-23T22:15:26.819Z,71.90
2019-01-23T22:17:52.831Z,71.90
2019-01-23T22:20:20.047Z,71.90
2019-01-23T22:22:46.083Z,72.70
2019-01-23T22:25:14.008Z,72.40
2019-01-23T22:27:40.128Z,72.80
2019-01-23T22:30:15.766Z,73.60
2019-01-23T22:32:41.807Z,73.20
2019-01-23T22:35:07.927Z,73.30
2019-01-23T22:37:33.959Z,73.40
2019-01-23T22:40:00.007Z,72.70
2019-01-23T22:42:26.041Z,73.70
2019-01-23T22:44:52.089Z,73.60
2019-01-23T22:47:38.026Z,72.30
2019-01-23T22:50:16.379Z,72.10
2019-01-23T22:52:42.456Z,73.10
2019-01-23T22:55:08.970Z,72.90
2019-01-23T22:57:35.003Z,74.20
2019-01-23T23:00:01.016Z,73.10
2019-01-23T23:02:27.094Z,72.90
2019-01-23T23:04:53.119Z,72.40
2019-01-23T23:07:19.167Z,72.90
2019-01-23T23:09:45.192Z,73.10
2019-01-23T23:12:11.252Z,73.50
2019-01-23T23:14:37.288Z,73.10
2019-01-23T23:17:03.464Z,73.80
2019-01-23T23:19:29.499Z,72.70
2019-01-23T23:21:55.522Z,72.70
2019-01-23T23:24:21.564Z,75.40
2019-01-23T23:26:47.644Z,76.20
2019-01-23T23:29:13.665Z,76.00
2019-01-23T23:31:53.513Z,75.90
2019-01-23T23:34:19.575Z,74.80
2019-01-23T23:36:45.600Z,73.10
2019-01-23T23:39:11.644Z,74.80
2019-01-23T23:41:37.679Z,74.30
2019-01-23T23:44:03.706Z,74.60
2019-01-23T23:46:29.731Z,73.10
2019-01-23T23:48:55.788Z,72.30
2019-01-23T23:51:21.810Z,71.80
2019-01-23T23:53:47.846Z,70.60
2019-01-23T23:56:13.855Z,71.10
2019-01-23T23:58:39.894Z,72.80
